sensor_id;sensor_type;location;lat;lon;timestamp;P1;durP1;ratioP1;P2;durP2;ratioP2
84866;SDS011;75123;51.788;4.654;2023-12-22T00:00:10;9.71;;;6.17;;
84866;SDS011;75123;51.788;4.654;2023-12-22T00:02:35;9.43;;;5.89;;
84866;SDS011;75123;51.788;4.654;2023-12-22T00:05:01;9.13;;;5.73;;
84866;SDS011;75123;51.788;4.654;2023-12-22T00:07:26;10.71;;;6.65;;
84866;SDS011;75123;51.788;4.654;2023-12-22T00:09:52;9.55;;;5.94;;
84866;SDS011;75123;51.788;4.654;2023-12-22T00:12:17;9.47;;;5.85;;
84866;SDS011;75123;51.788;4.654;2023-12-22T00:14:42;10.18;;;6.35;;
84866;SDS011;75123;51.788;4.654;2023-12-22T00:17:08;9.81;;;6.09;;
84866;SDS011;75123;51.788;4.654;2023-12-22T00:19:33;10.63;;;6.51;;
84866;SDS011;75123;51.788;4.654;2023-12-22T00:21:59;10.15;;;6.34;;
84866;SDS011;75123;51.788;4.654;2023-12-22T00:24:24;9.43;;;5.97;;
84866;SDS011;75123;51.788;4.654;2023-12-22T00:26:50;9.43;;;5.91;;
84866;SDS011;75123;51.788;4.654;2023-12-22T00:29:15;9.02;;;5.63;;
84866;SDS011;75123;51.788;4.654;2023-12-22T00:31:41;9.81;;;6.11;;
84866;SDS011;75123;51.788;4.654;2023-12-22T00:34:06;10.04;;;6.26;;
84866;SDS011;75123;51.788;4.654;2023-12-22T00:36:32;9.78;;;6.06;;
84866;SDS011;75123;51.788;4.654;2023-12-22T00:38:57;9.54;;;5.90;;
84866;SDS011;75123;51.788;4.654;2023-12-22T00:41:22;8.98;;;5.62;;
84866;SDS011;75123;51.788;4.654;2023-12-22T00:43:48;9.36;;;5.93;;
84866;SDS011;75123;51.788;4.654;2023-12-22T00:46:13;9.04;;;5.68;;
84866;SDS011;75123;51.788;4.654;2023-12-22T00:48:39;9.50;;;5.95;;
84866;SDS011;75123;51.788;4.654;2023-12-22T00:51:07;9.21;;;5.82;;
84866;SDS011;75123;51.788;4.654;2023-12-22T00:53:33;9.84;;;6.24;;
84866;SDS011;75123;51.788;4.654;2023-12-22T00:55:59;9.06;;;5.72;;
84866;SDS011;75123;51.788;4.654;2023-12-22T00:58:25;9.49;;;5.97;;
84866;SDS011;75123;51.788;4.654;2023-12-22T01:00:51;8.26;;;5.20;;
84866;SDS011;75123;51.788;4.654;2023-12-22T01:03:16;8.78;;;5.55;;
84866;SDS011;75123;51.788;4.654;2023-12-22T01:05:42;9.07;;;5.70;;
84866;SDS011;75123;51.788;4.654;2023-12-22T01:08:07;8.52;;;5.48;;
84866;SDS011;75123;51.788;4.654;2023-12-22T01:10:33;8.56;;;5.47;;
84866;SDS011;75123;51.788;4.654;2023-12-22T01:12:58;10.00;;;6.29;;
84866;SDS011;75123;51.788;4.654;2023-12-22T01:15:24;9.60;;;5.96;;
84866;SDS011;75123;51.788;4.654;2023-12-22T01:17:49;10.23;;;6.44;;
84866;SDS011;75123;51.788;4.654;2023-12-22T01:20:15;9.66;;;6.02;;
84866;SDS011;75123;51.788;4.654;2023-12-22T01:22:40;9.85;;;6.06;;
84866;SDS011;75123;51.788;4.654;2023-12-22T01:25:06;10.38;;;6.36;;
84866;SDS011;75123;51.788;4.654;2023-12-22T01:27:31;10.02;;;6.21;;
84866;SDS011;75123;51.788;4.654;2023-12-22T01:29:57;9.68;;;5.96;;
84866;SDS011;75123;51.788;4.654;2023-12-22T01:32:23;10.61;;;6.46;;
84866;SDS011;75123;51.788;4.654;2023-12-22T01:34:48;10.43;;;6.33;;
84866;SDS011;75123;51.788;4.654;2023-12-22T01:37:14;10.36;;;6.25;;
84866;SDS011;75123;51.788;4.654;2023-12-22T01:39:39;10.82;;;6.56;;
84866;SDS011;75123;51.788;4.654;2023-12-22T01:42:05;9.74;;;5.99;;
84866;SDS011;75123;51.788;4.654;2023-12-22T01:44:30;10.49;;;6.46;;
84866;SDS011;75123;51.788;4.654;2023-12-22T01:46:56;9.98;;;6.17;;
84866;SDS011;75123;51.788;4.654;2023-12-22T01:49:21;11.89;;;7.29;;
84866;SDS011;75123;51.788;4.654;2023-12-22T01:51:48;10.57;;;6.51;;
84866;SDS011;75123;51.788;4.654;2023-12-22T01:54:14;12.16;;;7.37;;
84866;SDS011;75123;51.788;4.654;2023-12-22T01:56:41;10.49;;;6.33;;
84866;SDS011;75123;51.788;4.654;2023-12-22T01:59:07;11.46;;;6.97;;
84866;SDS011;75123;51.788;4.654;2023-12-22T02:01:33;11.20;;;6.67;;
84866;SDS011;75123;51.788;4.654;2023-12-22T02:04:00;11.34;;;6.77;;
84866;SDS011;75123;51.788;4.654;2023-12-22T02:06:27;11.52;;;7.00;;
84866;SDS011;75123;51.788;4.654;2023-12-22T02:08:55;9.81;;;6.09;;
84866;SDS011;75123;51.788;4.654;2023-12-22T02:11:23;10.61;;;6.57;;
84866;SDS011;75123;51.788;4.654;2023-12-22T02:13:48;11.63;;;7.16;;
84866;SDS011;75123;51.788;4.654;2023-12-22T02:16:18;10.45;;;6.51;;
84866;SDS011;75123;51.788;4.654;2023-12-22T02:18:52;11.01;;;6.75;;
84866;SDS011;75123;51.788;4.654;2023-12-22T02:21:20;11.37;;;6.99;;
84866;SDS011;75123;51.788;4.654;2023-12-22T02:23:49;11.19;;;6.88;;
84866;SDS011;75123;51.788;4.654;2023-12-22T02:26:21;10.31;;;6.37;;
84866;SDS011;75123;51.788;4.654;2023-12-22T02:29:01;9.20;;;5.69;;
84866;SDS011;75123;51.788;4.654;2023-12-22T02:31:28;8.54;;;5.34;;
84866;SDS011;75123;51.788;4.654;2023-12-22T02:34:01;9.30;;;5.79;;
84866;SDS011;75123;51.788;4.654;2023-12-22T02:36:32;9.01;;;5.57;;
84866;SDS011;75123;51.788;4.654;2023-12-22T02:39:01;8.07;;;5.01;;
84866;SDS011;75123;51.788;4.654;2023-12-22T02:41:27;8.22;;;5.07;;
84866;SDS011;75123;51.788;4.654;2023-12-22T02:43:52;8.36;;;5.11;;
84866;SDS011;75123;51.788;4.654;2023-12-22T02:46:18;7.79;;;4.85;;
84866;SDS011;75123;51.788;4.654;2023-12-22T02:48:43;7.88;;;4.95;;
84866;SDS011;75123;51.788;4.654;2023-12-22T02:51:08;7.26;;;4.60;;
84866;SDS011;75123;51.788;4.654;2023-12-22T02:53:34;7.48;;;4.75;;
84866;SDS011;75123;51.788;4.654;2023-12-22T02:55:59;7.47;;;4.70;;
84866;SDS011;75123;51.788;4.654;2023-12-22T02:58:25;9.04;;;5.71;;
84866;SDS011;75123;51.788;4.654;2023-12-22T03:00:50;7.91;;;4.96;;
84866;SDS011;75123;51.788;4.654;2023-12-22T03:03:16;7.87;;;4.93;;
84866;SDS011;75123;51.788;4.654;2023-12-22T03:05:41;8.12;;;5.10;;
84866;SDS011;75123;51.788;4.654;2023-12-22T03:08:07;7.08;;;4.39;;
84866;SDS011;75123;51.788;4.654;2023-12-22T03:10:32;7.42;;;4.63;;
84866;SDS011;75123;51.788;4.654;2023-12-22T03:12:58;7.76;;;4.91;;
84866;SDS011;75123;51.788;4.654;2023-12-22T03:15:23;7.66;;;4.82;;
84866;SDS011;75123;51.788;4.654;2023-12-22T03:17:49;9.10;;;5.62;;
84866;SDS011;75123;51.788;4.654;2023-12-22T03:20:14;9.94;;;6.03;;
84866;SDS011;75123;51.788;4.654;2023-12-22T03:22:40;8.60;;;5.24;;
84866;SDS011;75123;51.788;4.654;2023-12-22T03:25:05;8.64;;;5.27;;
84866;SDS011;75123;51.788;4.654;2023-12-22T03:27:31;8.04;;;5.04;;
84866;SDS011;75123;51.788;4.654;2023-12-22T03:29:56;8.00;;;4.96;;
84866;SDS011;75123;51.788;4.654;2023-12-22T03:32:22;8.94;;;5.43;;
84866;SDS011;75123;51.788;4.654;2023-12-22T03:34:47;8.25;;;5.03;;
84866;SDS011;75123;51.788;4.654;2023-12-22T03:37:13;8.30;;;5.02;;
84866;SDS011;75123;51.788;4.654;2023-12-22T03:39:38;8.19;;;4.95;;
84866;SDS011;75123;51.788;4.654;2023-12-22T03:42:04;8.65;;;5.26;;
84866;SDS011;75123;51.788;4.654;2023-12-22T03:44:29;8.49;;;5.12;;
84866;SDS011;75123;51.788;4.654;2023-12-22T03:46:55;8.26;;;5.07;;
84866;SDS011;75123;51.788;4.654;2023-12-22T03:49:21;8.62;;;5.32;;
84866;SDS011;75123;51.788;4.654;2023-12-22T03:51:46;8.44;;;5.22;;
84866;SDS011;75123;51.788;4.654;2023-12-22T03:54:12;8.74;;;5.28;;
84866;SDS011;75123;51.788;4.654;2023-12-22T03:56:37;8.00;;;4.80;;
84866;SDS011;75123;51.788;4.654;2023-12-22T03:59:03;8.66;;;5.28;;
84866;SDS011;75123;51.788;4.654;2023-12-22T04:01:28;8.47;;;5.25;;
84866;SDS011;75123;51.788;4.654;2023-12-22T04:03:54;8.13;;;5.00;;
84866;SDS011;75123;51.788;4.654;2023-12-22T04:06:19;8.79;;;5.33;;
84866;SDS011;75123;51.788;4.654;2023-12-22T04:08:45;8.27;;;5.07;;
84866;SDS011;75123;51.788;4.654;2023-12-22T04:11:10;7.05;;;4.35;;
84866;SDS011;75123;51.788;4.654;2023-12-22T04:13:36;8.17;;;5.08;;
84866;SDS011;75123;51.788;4.654;2023-12-22T04:16:01;8.66;;;5.31;;
84866;SDS011;75123;51.788;4.654;2023-12-22T04:18:29;7.86;;;4.85;;
84866;SDS011;75123;51.788;4.654;2023-12-22T04:20:55;7.55;;;4.55;;
84866;SDS011;75123;51.788;4.654;2023-12-22T04:23:20;8.80;;;5.31;;
84866;SDS011;75123;51.788;4.654;2023-12-22T04:25:46;8.92;;;5.43;;
84866;SDS011;75123;51.788;4.654;2023-12-22T04:28:11;9.20;;;5.82;;
84866;SDS011;75123;51.788;4.654;2023-12-22T04:30:37;7.34;;;4.60;;
84866;SDS011;75123;51.788;4.654;2023-12-22T04:33:03;7.50;;;4.63;;
84866;SDS011;75123;51.788;4.654;2023-12-22T04:35:28;7.26;;;4.51;;
84866;SDS011;75123;51.788;4.654;2023-12-22T04:37:54;7.86;;;4.90;;
84866;SDS011;75123;51.788;4.654;2023-12-22T04:40:19;7.80;;;4.81;;
84866;SDS011;75123;51.788;4.654;2023-12-22T04:42:44;7.50;;;4.55;;
84866;SDS011;75123;51.788;4.654;2023-12-22T04:45:10;8.92;;;5.42;;
84866;SDS011;75123;51.788;4.654;2023-12-22T04:47:35;8.97;;;5.47;;
84866;SDS011;75123;51.788;4.654;2023-12-22T04:50:01;10.34;;;6.27;;
84866;SDS011;75123;51.788;4.654;2023-12-22T04:52:26;13.62;;;8.43;;
84866;SDS011;75123;51.788;4.654;2023-12-22T04:54:53;10.00;;;6.63;;
84866;SDS011;75123;51.788;4.654;2023-12-22T04:57:19;12.19;;;7.73;;
84866;SDS011;75123;51.788;4.654;2023-12-22T04:59:44;14.01;;;8.76;;
84866;SDS011;75123;51.788;4.654;2023-12-22T05:02:10;14.11;;;8.73;;
84866;SDS011;75123;51.788;4.654;2023-12-22T05:04:35;12.54;;;7.83;;
84866;SDS011;75123;51.788;4.654;2023-12-22T05:07:01;13.70;;;8.53;;
84866;SDS011;75123;51.788;4.654;2023-12-22T05:09:26;14.57;;;8.85;;
84866;SDS011;75123;51.788;4.654;2023-12-22T05:11:53;16.69;;;10.04;;
84866;SDS011;75123;51.788;4.654;2023-12-22T05:14:19;16.35;;;10.04;;
84866;SDS011;75123;51.788;4.654;2023-12-22T05:16:44;15.99;;;9.94;;
84866;SDS011;75123;51.788;4.654;2023-12-22T05:19:10;16.52;;;10.34;;
84866;SDS011;75123;51.788;4.654;2023-12-22T05:21:35;16.86;;;10.50;;
84866;SDS011;75123;51.788;4.654;2023-12-22T05:24:01;18.10;;;11.05;;
84866;SDS011;75123;51.788;4.654;2023-12-22T05:26:26;18.58;;;11.42;;
84866;SDS011;75123;51.788;4.654;2023-12-22T05:28:55;17.58;;;11.04;;
84866;SDS011;75123;51.788;4.654;2023-12-22T05:31:20;16.78;;;10.46;;
84866;SDS011;75123;51.788;4.654;2023-12-22T05:33:46;17.33;;;10.88;;
84866;SDS011;75123;51.788;4.654;2023-12-22T05:36:11;18.21;;;11.42;;
84866;SDS011;75123;51.788;4.654;2023-12-22T05:38:37;18.42;;;11.51;;
84866;SDS011;75123;51.788;4.654;2023-12-22T05:41:03;17.18;;;10.69;;
84866;SDS011;75123;51.788;4.654;2023-12-22T05:43:29;18.97;;;11.58;;
84866;SDS011;75123;51.788;4.654;2023-12-22T05:45:55;19.73;;;11.95;;
84866;SDS011;75123;51.788;4.654;2023-12-22T05:48:20;20.84;;;12.39;;
84866;SDS011;75123;51.788;4.654;2023-12-22T05:50:47;19.49;;;12.01;;
84866;SDS011;75123;51.788;4.654;2023-12-22T05:53:13;19.53;;;12.01;;
84866;SDS011;75123;51.788;4.654;2023-12-22T05:55:38;18.96;;;11.51;;
84866;SDS011;75123;51.788;4.654;2023-12-22T05:58:04;18.96;;;11.72;;
84866;SDS011;75123;51.788;4.654;2023-12-22T06:00:30;18.64;;;11.77;;
84866;SDS011;75123;51.788;4.654;2023-12-22T06:02:56;17.56;;;11.05;;
84866;SDS011;75123;51.788;4.654;2023-12-22T06:05:21;20.37;;;12.54;;
84866;SDS011;75123;51.788;4.654;2023-12-22T06:07:47;20.23;;;12.45;;
84866;SDS011;75123;51.788;4.654;2023-12-22T06:10:12;20.54;;;12.67;;
84866;SDS011;75123;51.788;4.654;2023-12-22T06:12:38;21.86;;;13.16;;
84866;SDS011;75123;51.788;4.654;2023-12-22T06:15:03;21.86;;;13.27;;
84866;SDS011;75123;51.788;4.654;2023-12-22T06:17:29;22.36;;;13.42;;
84866;SDS011;75123;51.788;4.654;2023-12-22T06:19:55;21.21;;;12.82;;
84866;SDS011;75123;51.788;4.654;2023-12-22T06:22:20;20.75;;;12.87;;
84866;SDS011;75123;51.788;4.654;2023-12-22T06:24:46;19.80;;;12.23;;
84866;SDS011;75123;51.788;4.654;2023-12-22T06:27:12;21.22;;;12.79;;
84866;SDS011;75123;51.788;4.654;2023-12-22T06:29:37;20.86;;;12.64;;
84866;SDS011;75123;51.788;4.654;2023-12-22T06:32:03;20.23;;;12.33;;
84866;SDS011;75123;51.788;4.654;2023-12-22T06:34:31;20.16;;;12.43;;
84866;SDS011;75123;51.788;4.654;2023-12-22T06:36:57;21.16;;;13.10;;
84866;SDS011;75123;51.788;4.654;2023-12-22T06:39:22;18.62;;;11.70;;
84866;SDS011;75123;51.788;4.654;2023-12-22T06:41:48;19.21;;;11.82;;
84866;SDS011;75123;51.788;4.654;2023-12-22T06:44:13;20.08;;;12.25;;
84866;SDS011;75123;51.788;4.654;2023-12-22T06:46:39;18.86;;;11.60;;
84866;SDS011;75123;51.788;4.654;2023-12-22T06:49:04;18.68;;;11.45;;
84866;SDS011;75123;51.788;4.654;2023-12-22T06:51:32;18.22;;;11.24;;
84866;SDS011;75123;51.788;4.654;2023-12-22T06:54:00;17.09;;;10.68;;
84866;SDS011;75123;51.788;4.654;2023-12-22T06:56:27;16.82;;;10.58;;
84866;SDS011;75123;51.788;4.654;2023-12-22T06:58:54;18.17;;;11.43;;
84866;SDS011;75123;51.788;4.654;2023-12-22T07:01:23;18.01;;;11.09;;
84866;SDS011;75123;51.788;4.654;2023-12-22T07:03:50;16.61;;;10.39;;
84866;SDS011;75123;51.788;4.654;2023-12-22T07:06:16;16.38;;;10.49;;
84866;SDS011;75123;51.788;4.654;2023-12-22T07:08:43;17.34;;;10.99;;
84866;SDS011;75123;51.788;4.654;2023-12-22T07:11:11;16.92;;;10.79;;
84866;SDS011;75123;51.788;4.654;2023-12-22T07:13:37;16.69;;;10.74;;
84866;SDS011;75123;51.788;4.654;2023-12-22T07:16:03;14.95;;;9.71;;
84866;SDS011;75123;51.788;4.654;2023-12-22T07:18:30;15.67;;;10.30;;
84866;SDS011;75123;51.788;4.654;2023-12-22T07:20:59;14.85;;;9.97;;
84866;SDS011;75123;51.788;4.654;2023-12-22T07:23:24;15.93;;;10.09;;
84866;SDS011;75123;51.788;4.654;2023-12-22T07:25:50;18.36;;;11.35;;
84866;SDS011;75123;51.788;4.654;2023-12-22T07:28:16;15.86;;;9.81;;
84866;SDS011;75123;51.788;4.654;2023-12-22T07:30:41;14.11;;;8.95;;
84866;SDS011;75123;51.788;4.654;2023-12-22T07:33:07;14.62;;;9.21;;
84866;SDS011;75123;51.788;4.654;2023-12-22T07:35:32;13.54;;;8.51;;
84866;SDS011;75123;51.788;4.654;2023-12-22T07:37:58;12.50;;;7.73;;
84866;SDS011;75123;51.788;4.654;2023-12-22T07:40:23;12.64;;;7.87;;
84866;SDS011;75123;51.788;4.654;2023-12-22T07:42:49;13.29;;;8.23;;
84866;SDS011;75123;51.788;4.654;2023-12-22T07:45:15;13.04;;;8.12;;
84866;SDS011;75123;51.788;4.654;2023-12-22T07:47:41;12.57;;;8.00;;
84866;SDS011;75123;51.788;4.654;2023-12-22T07:50:07;11.84;;;7.61;;
84866;SDS011;75123;51.788;4.654;2023-12-22T07:52:34;11.50;;;7.42;;
84866;SDS011;75123;51.788;4.654;2023-12-22T07:55:04;11.31;;;7.25;;
84866;SDS011;75123;51.788;4.654;2023-12-22T07:57:31;12.98;;;8.19;;
84866;SDS011;75123;51.788;4.654;2023-12-22T07:59:56;14.08;;;8.88;;
84866;SDS011;75123;51.788;4.654;2023-12-22T08:02:22;14.95;;;9.87;;
84866;SDS011;75123;51.788;4.654;2023-12-22T08:04:48;11.73;;;7.82;;
84866;SDS011;75123;51.788;4.654;2023-12-22T08:07:15;11.53;;;7.40;;
84866;SDS011;75123;51.788;4.654;2023-12-22T08:09:41;12.25;;;7.65;;
84866;SDS011;75123;51.788;4.654;2023-12-22T08:12:07;13.59;;;8.51;;
84866;SDS011;75123;51.788;4.654;2023-12-22T08:14:32;13.02;;;8.27;;
84866;SDS011;75123;51.788;4.654;2023-12-22T08:16:58;10.60;;;6.84;;
84866;SDS011;75123;51.788;4.654;2023-12-22T08:19:23;10.47;;;6.79;;
84866;SDS011;75123;51.788;4.654;2023-12-22T08:21:50;10.13;;;6.51;;
84866;SDS011;75123;51.788;4.654;2023-12-22T08:24:17;9.84;;;6.36;;
84866;SDS011;75123;51.788;4.654;2023-12-22T08:26:43;10.34;;;6.55;;
84866;SDS011;75123;51.788;4.654;2023-12-22T08:29:08;9.24;;;5.73;;
84866;SDS011;75123;51.788;4.654;2023-12-22T08:31:34;8.54;;;5.33;;
84866;SDS011;75123;51.788;4.654;2023-12-22T08:33:59;8.78;;;5.63;;
84866;SDS011;75123;51.788;4.654;2023-12-22T08:36:25;8.47;;;5.38;;
84866;SDS011;75123;51.788;4.654;2023-12-22T08:38:50;8.48;;;5.30;;
84866;SDS011;75123;51.788;4.654;2023-12-22T08:41:16;9.30;;;5.72;;
84866;SDS011;75123;51.788;4.654;2023-12-22T08:43:41;9.01;;;5.50;;
84866;SDS011;75123;51.788;4.654;2023-12-22T08:46:07;8.12;;;5.05;;
84866;SDS011;75123;51.788;4.654;2023-12-22T08:48:34;7.84;;;4.84;;
84866;SDS011;75123;51.788;4.654;2023-12-22T08:51:00;6.85;;;4.23;;
84866;SDS011;75123;51.788;4.654;2023-12-22T08:53:26;7.47;;;4.60;;
84866;SDS011;75123;51.788;4.654;2023-12-22T08:55:55;7.85;;;4.79;;
84866;SDS011;75123;51.788;4.654;2023-12-22T08:58:21;6.73;;;4.16;;
84866;SDS011;75123;51.788;4.654;2023-12-22T09:00:47;6.57;;;4.01;;
84866;SDS011;75123;51.788;4.654;2023-12-22T09:03:12;6.28;;;3.84;;
84866;SDS011;75123;51.788;4.654;2023-12-22T09:05:38;5.77;;;3.58;;
84866;SDS011;75123;51.788;4.654;2023-12-22T09:08:04;6.91;;;4.29;;
84866;SDS011;75123;51.788;4.654;2023-12-22T09:10:31;5.85;;;3.62;;
84866;SDS011;75123;51.788;4.654;2023-12-22T09:12:57;5.78;;;3.63;;
84866;SDS011;75123;51.788;4.654;2023-12-22T09:15:23;4.98;;;3.16;;
84866;SDS011;75123;51.788;4.654;2023-12-22T09:17:48;5.20;;;3.26;;
84866;SDS011;75123;51.788;4.654;2023-12-22T09:20:14;5.19;;;3.23;;
84866;SDS011;75123;51.788;4.654;2023-12-22T09:22:39;6.00;;;3.73;;
84866;SDS011;75123;51.788;4.654;2023-12-22T09:25:05;5.35;;;3.28;;
84866;SDS011;75123;51.788;4.654;2023-12-22T09:27:30;6.62;;;4.01;;
84866;SDS011;75123;51.788;4.654;2023-12-22T09:29:56;6.75;;;4.09;;
84866;SDS011;75123;51.788;4.654;2023-12-22T09:32:21;5.81;;;3.59;;
84866;SDS011;75123;51.788;4.654;2023-12-22T09:34:47;5.40;;;3.38;;
84866;SDS011;75123;51.788;4.654;2023-12-22T09:37:13;5.13;;;3.24;;
84866;SDS011;75123;51.788;4.654;2023-12-22T09:39:39;5.19;;;3.33;;
84866;SDS011;75123;51.788;4.654;2023-12-22T09:42:05;5.18;;;3.36;;
84866;SDS011;75123;51.788;4.654;2023-12-22T09:44:31;5.30;;;3.47;;
84866;SDS011;75123;51.788;4.654;2023-12-22T09:47:01;4.92;;;3.15;;
84866;SDS011;75123;51.788;4.654;2023-12-22T09:49:29;4.58;;;2.95;;
84866;SDS011;75123;51.788;4.654;2023-12-22T09:51:55;4.40;;;2.93;;
84866;SDS011;75123;51.788;4.654;2023-12-22T09:54:22;4.16;;;2.81;;
84866;SDS011;75123;51.788;4.654;2023-12-22T09:56:48;4.16;;;2.83;;
84866;SDS011;75123;51.788;4.654;2023-12-22T09:59:15;4.76;;;3.26;;
84866;SDS011;75123;51.788;4.654;2023-12-22T10:01:43;4.61;;;3.18;;
84866;SDS011;75123;51.788;4.654;2023-12-22T10:04:12;4.02;;;2.78;;
84866;SDS011;75123;51.788;4.654;2023-12-22T10:06:38;3.84;;;2.64;;
84866;SDS011;75123;51.788;4.654;2023-12-22T10:09:05;3.88;;;2.63;;
84866;SDS011;75123;51.788;4.654;2023-12-22T10:11:32;5.19;;;3.53;;
84866;SDS011;75123;51.788;4.654;2023-12-22T10:13:59;5.72;;;3.88;;
84866;SDS011;75123;51.788;4.654;2023-12-22T10:16:25;4.77;;;3.22;;
84866;SDS011;75123;51.788;4.654;2023-12-22T10:18:51;5.69;;;3.79;;
84866;SDS011;75123;51.788;4.654;2023-12-22T10:21:17;5.51;;;3.72;;
84866;SDS011;75123;51.788;4.654;2023-12-22T10:23:43;5.16;;;3.54;;
84866;SDS011;75123;51.788;4.654;2023-12-22T10:26:11;4.73;;;3.24;;
84866;SDS011;75123;51.788;4.654;2023-12-22T10:28:36;5.28;;;3.56;;
84866;SDS011;75123;51.788;4.654;2023-12-22T10:31:02;5.14;;;3.46;;
84866;SDS011;75123;51.788;4.654;2023-12-22T10:33:31;3.96;;;2.69;;
84866;SDS011;75123;51.788;4.654;2023-12-22T10:35:58;4.58;;;3.08;;
84866;SDS011;75123;51.788;4.654;2023-12-22T10:38:24;5.87;;;3.90;;
84866;SDS011;75123;51.788;4.654;2023-12-22T10:40:50;4.66;;;3.14;;
84866;SDS011;75123;51.788;4.654;2023-12-22T10:43:16;4.34;;;2.92;;
84866;SDS011;75123;51.788;4.654;2023-12-22T10:45:41;4.50;;;3.07;;
84866;SDS011;75123;51.788;4.654;2023-12-22T10:48:07;4.71;;;3.22;;
84866;SDS011;75123;51.788;4.654;2023-12-22T10:50:33;4.14;;;2.80;;
84866;SDS011;75123;51.788;4.654;2023-12-22T10:52:58;4.61;;;3.07;;
84866;SDS011;75123;51.788;4.654;2023-12-22T10:55:24;5.12;;;3.47;;
84866;SDS011;75123;51.788;4.654;2023-12-22T10:57:49;4.57;;;3.09;;
84866;SDS011;75123;51.788;4.654;2023-12-22T11:00:15;4.89;;;3.26;;
84866;SDS011;75123;51.788;4.654;2023-12-22T11:02:42;5.33;;;3.53;;
84866;SDS011;75123;51.788;4.654;2023-12-22T11:05:09;5.20;;;3.49;;
84866;SDS011;75123;51.788;4.654;2023-12-22T11:07:37;5.49;;;3.66;;
84866;SDS011;75123;51.788;4.654;2023-12-22T11:10:04;5.85;;;3.92;;
84866;SDS011;75123;51.788;4.654;2023-12-22T11:12:35;4.98;;;3.39;;
84866;SDS011;75123;51.788;4.654;2023-12-22T11:15:02;5.89;;;3.94;;
84866;SDS011;75123;51.788;4.654;2023-12-22T11:17:31;6.04;;;4.08;;
84866;SDS011;75123;51.788;4.654;2023-12-22T11:19:57;5.75;;;3.93;;
84866;SDS011;75123;51.788;4.654;2023-12-22T11:22:23;5.52;;;3.87;;
84866;SDS011;75123;51.788;4.654;2023-12-22T11:24:49;4.68;;;3.33;;
84866;SDS011;75123;51.788;4.654;2023-12-22T11:27:18;4.31;;;3.07;;
84866;SDS011;75123;51.788;4.654;2023-12-22T11:29:48;4.75;;;3.40;;
84866;SDS011;75123;51.788;4.654;2023-12-22T11:32:18;5.49;;;3.84;;
84866;SDS011;75123;51.788;4.654;2023-12-22T11:34:47;4.29;;;3.01;;
84866;SDS011;75123;51.788;4.654;2023-12-22T11:37:13;5.08;;;3.49;;
84866;SDS011;75123;51.788;4.654;2023-12-22T11:39:40;6.01;;;4.07;;
84866;SDS011;75123;51.788;4.654;2023-12-22T11:42:11;4.79;;;3.24;;
84866;SDS011;75123;51.788;4.654;2023-12-22T11:44:41;4.90;;;3.34;;
84866;SDS011;75123;51.788;4.654;2023-12-22T11:47:07;5.11;;;3.44;;
84866;SDS011;75123;51.788;4.654;2023-12-22T11:49:36;4.84;;;3.28;;
84866;SDS011;75123;51.788;4.654;2023-12-22T11:52:09;4.68;;;3.19;;
84866;SDS011;75123;51.788;4.654;2023-12-22T11:54:48;4.85;;;3.33;;
84866;SDS011;75123;51.788;4.654;2023-12-22T11:59:52;4.70;;;3.23;;
84866;SDS011;75123;51.788;4.654;2023-12-22T12:02:17;4.45;;;2.98;;
84866;SDS011;75123;51.788;4.654;2023-12-22T12:04:43;4.46;;;2.97;;
84866;SDS011;75123;51.788;4.654;2023-12-22T12:10:05;5.83;;;3.72;;
84866;SDS011;75123;51.788;4.654;2023-12-22T12:12:34;6.16;;;3.86;;
84866;SDS011;75123;51.788;4.654;2023-12-22T12:15:06;5.45;;;3.42;;
84866;SDS011;75123;51.788;4.654;2023-12-22T12:17:33;6.77;;;4.23;;
84866;SDS011;75123;51.788;4.654;2023-12-22T12:20:02;6.10;;;3.83;;
84866;SDS011;75123;51.788;4.654;2023-12-22T12:22:30;5.63;;;3.58;;
84866;SDS011;75123;51.788;4.654;2023-12-22T12:24:56;5.15;;;3.30;;
84866;SDS011;75123;51.788;4.654;2023-12-22T12:27:22;5.61;;;3.67;;
84866;SDS011;75123;51.788;4.654;2023-12-22T12:29:47;6.05;;;3.90;;
84866;SDS011;75123;51.788;4.654;2023-12-22T12:32:16;6.45;;;4.10;;
84866;SDS011;75123;51.788;4.654;2023-12-22T12:34:45;7.36;;;4.73;;
84866;SDS011;75123;51.788;4.654;2023-12-22T12:37:12;6.33;;;4.11;;
84866;SDS011;75123;51.788;4.654;2023-12-22T12:39:37;6.18;;;4.02;;
84866;SDS011;75123;51.788;4.654;2023-12-22T12:42:06;6.71;;;4.42;;
84866;SDS011;75123;51.788;4.654;2023-12-22T12:44:33;6.10;;;4.08;;
84866;SDS011;75123;51.788;4.654;2023-12-22T12:47:00;5.78;;;3.81;;
84866;SDS011;75123;51.788;4.654;2023-12-22T12:49:36;5.59;;;3.69;;
84866;SDS011;75123;51.788;4.654;2023-12-22T12:52:02;6.03;;;3.98;;
84866;SDS011;75123;51.788;4.654;2023-12-22T12:54:27;5.72;;;3.74;;
84866;SDS011;75123;51.788;4.654;2023-12-22T12:56:53;6.50;;;4.18;;
84866;SDS011;75123;51.788;4.654;2023-12-22T12:59:18;6.62;;;4.13;;
84866;SDS011;75123;51.788;4.654;2023-12-22T13:01:45;5.75;;;3.66;;
84866;SDS011;75123;51.788;4.654;2023-12-22T13:04:12;6.63;;;4.32;;
84866;SDS011;75123;51.788;4.654;2023-12-22T13:06:48;5.94;;;3.86;;
84866;SDS011;75123;51.788;4.654;2023-12-22T13:09:14;6.42;;;4.11;;
84866;SDS011;75123;51.788;4.654;2023-12-22T13:11:41;6.20;;;4.07;;
84866;SDS011;75123;51.788;4.654;2023-12-22T13:14:08;6.31;;;4.13;;
84866;SDS011;75123;51.788;4.654;2023-12-22T13:16:34;5.90;;;3.88;;
84866;SDS011;75123;51.788;4.654;2023-12-22T13:19:00;6.21;;;4.09;;
84866;SDS011;75123;51.788;4.654;2023-12-22T13:21:26;6.74;;;4.40;;
84866;SDS011;75123;51.788;4.654;2023-12-22T13:24:10;5.73;;;3.69;;
84866;SDS011;75123;51.788;4.654;2023-12-22T13:26:36;6.71;;;4.31;;
84866;SDS011;75123;51.788;4.654;2023-12-22T13:29:02;7.22;;;4.61;;
84866;SDS011;75123;51.788;4.654;2023-12-22T13:31:27;6.28;;;4.01;;
84866;SDS011;75123;51.788;4.654;2023-12-22T13:33:55;6.95;;;4.44;;
84866;SDS011;75123;51.788;4.654;2023-12-22T13:36:21;6.80;;;4.37;;
84866;SDS011;75123;51.788;4.654;2023-12-22T13:38:47;6.67;;;4.28;;
84866;SDS011;75123;51.788;4.654;2023-12-22T13:41:13;7.31;;;4.65;;
84866;SDS011;75123;51.788;4.654;2023-12-22T13:43:40;6.58;;;4.15;;
84866;SDS011;75123;51.788;4.654;2023-12-22T13:46:05;7.44;;;4.71;;
84866;SDS011;75123;51.788;4.654;2023-12-22T13:48:33;7.13;;;4.50;;
84866;SDS011;75123;51.788;4.654;2023-12-22T13:51:00;7.81;;;4.89;;
84866;SDS011;75123;51.788;4.654;2023-12-22T13:53:26;6.87;;;4.42;;
84866;SDS011;75123;51.788;4.654;2023-12-22T13:55:55;7.53;;;4.87;;
84866;SDS011;75123;51.788;4.654;2023-12-22T13:58:20;7.21;;;4.65;;
84866;SDS011;75123;51.788;4.654;2023-12-22T14:00:46;6.62;;;4.37;;
84866;SDS011;75123;51.788;4.654;2023-12-22T14:03:11;7.09;;;4.65;;
84866;SDS011;75123;51.788;4.654;2023-12-22T14:05:37;7.21;;;4.68;;
84866;SDS011;75123;51.788;4.654;2023-12-22T14:08:05;7.45;;;4.98;;
84866;SDS011;75123;51.788;4.654;2023-12-22T14:10:31;7.40;;;4.84;;
84866;SDS011;75123;51.788;4.654;2023-12-22T14:12:56;6.87;;;4.49;;
84866;SDS011;75123;51.788;4.654;2023-12-22T14:15:22;7.35;;;4.74;;
84866;SDS011;75123;51.788;4.654;2023-12-22T14:17:48;8.17;;;5.10;;
84866;SDS011;75123;51.788;4.654;2023-12-22T14:20:14;8.51;;;5.21;;
84866;SDS011;75123;51.788;4.654;2023-12-22T14:22:39;8.81;;;5.49;;
84866;SDS011;75123;51.788;4.654;2023-12-22T14:25:05;8.37;;;5.19;;
84866;SDS011;75123;51.788;4.654;2023-12-22T14:27:31;7.74;;;4.93;;
84866;SDS011;75123;51.788;4.654;2023-12-22T14:29:56;7.29;;;4.72;;
84866;SDS011;75123;51.788;4.654;2023-12-22T14:32:22;7.84;;;5.10;;
84866;SDS011;75123;51.788;4.654;2023-12-22T14:34:48;7.38;;;4.85;;
84866;SDS011;75123;51.788;4.654;2023-12-22T14:37:13;7.41;;;4.84;;
84866;SDS011;75123;51.788;4.654;2023-12-22T14:39:39;7.22;;;4.72;;